Main page
METAR-TAF:

METAR-TAF

Airports :

Qeshm International Airport

Qeshm, Iran

latitude: 26-45-18N, longitude: 055-54-08E, elevation: 12 m

Current weather observation

The report was made 48 minutes ago, at 07:00 UTC
Calm wind
Temperature 20°C
Humidity 78%
Pressure 1018 hPa
Visibility: 8000 m

METAR: OIKQ 250700Z 00000KT 8000 NSC 20/16 Q1018 NOSIG

Time: 11:18 (07:48 UTC)


TAF: missing

Weather observations and forecasts of more than 4000 airports (METAR and TAF reports).

The available stations are represented by yellow and red dots on the map.

Hover mouse over dot to see the name of the station.

Then click to see weather observations and forecasts.

To change the map : click on the green buttons with a black cross to zoom in, on the green button with a dash to zoom out, or on the green arrows for adjacent maps.


METAR-TAF: